^^
Saratoga-Weather Station Historical Data
 
Daily Summary for October 17, 2018 Units:  English    Metric   Both
Daily Weekly Monthly Yearly Custom
  Current: High: Low: Average:
Temperature: 65.6 °F 74.6 °F 46.8 °F 58.4 °F
Dew Point: 52.7 °F 53.8 °F 35.5 °F 45.1 °F
Humidity: 63% 89% 34% 64%
Wind Speed: 0.3mph 4.4mph 0mph 0.5mph
Wind Gust: 1mph 6.9mph - -
WindNNW - - SE
Pressure: 30.05 in 30.12 in 30.01 in -
Precipitation: 0 in      
Historical Graphs
 
 
Tabular Data for October 17, 2018
Time Temperature Dew Point Pressure Wind Wind Speed Wind Gust Humidity Rainfall Rate (Hourly) solar
00:04 51.7 °F 39.1 °F 30.06 in Calm     62% 0 in 0.00 W/m2
00:09 51.6 °F 39.4 °F 30.05 in Calm     63% 0 in 0.00 W/m2
00:14 51.4 °F 38.8 °F 30.05 in Calm     62% 0 in 0.00 W/m2
00:19 51.3 °F 39.1 °F 30.05 in Calm     63% 0 in 0.00 W/m2
00:24 51.3 °F 39.1 °F 30.05 in Calm     63% 0 in 0.00 W/m2
00:29 51.1 °F 38.9 °F 30.05 in Calm     63% 0 in 0.00 W/m2
00:34 51 °F 38.4 °F 30.05 in Calm     62% 0 in 0.00 W/m2
00:39 50.8 °F 38.2 °F 30.05 in Calm     62% 0 in 0.00 W/m2
00:44 50.7 °F 38.1 °F 30.05 in Calm     62% 0 in 0.00 W/m2
00:49 50.5 °F 37.1 °F 30.04 in Calm     60% 0 in 0.00 W/m2
00:54 50.4 °F 36.6 °F 30.04 in Calm     59% 0 in 0.00 W/m2
00:59 50.2 °F 36 °F 30.05 in Calm     58% 0 in 0.00 W/m2
01:04 50.2 °F 36 °F 30.05 in Calm     58% 0 in 0.00 W/m2
01:09 50.1 °F 35.9 °F 30.05 in Calm     58% 0 in 0.00 W/m2
01:14 49.9 °F 35.7 °F 30.05 in Calm     58% 0 in 0.00 W/m2
01:19 49.8 °F 35.6 °F 30.05 in Calm     58% 0 in 0.00 W/m2
01:24 49.8 °F 36.5 °F 30.05 in Calm     60% 0 in 0.00 W/m2
01:29 49.6 °F 36.3 °F 30.05 in Calm     60% 0 in 0.00 W/m2
01:34 49.6 °F 36.3 °F 30.05 in Calm     60% 0 in 0.00 W/m2
01:39 49.5 °F 36.2 °F 30.05 in Calm     60% 0 in 0.00 W/m2
01:44 49.5 °F 37 °F 30.05 in Calm     62% 0 in 0.00 W/m2
01:49 49.4 °F 36.9 °F 30.05 in Calm     62% 0 in 0.00 W/m2
01:54 49.4 °F 36.5 °F 30.05 in Calm     61% 0 in 0.00 W/m2
01:59 49.4 °F 36.9 °F 30.05 in Calm     62% 0 in 0.00 W/m2
02:04 49.2 °F 37.1 °F 30.05 in Calm     63% 0 in 0.00 W/m2
02:09 49.2 °F 37.1 °F 30.05 in Calm     63% 0 in 0.00 W/m2
02:14 49.1 °F 37.4 °F 30.05 in Calm     64% 0 in 0.00 W/m2
02:19 49.1 °F 37.8 °F 30.05 in Calm     65% 0 in 0.00 W/m2
02:24 48.9 °F 37.3 °F 30.05 in Calm     64% 0 in 0.00 W/m2
02:29 48.9 °F 37.6 °F 30.05 in Calm     65% 0 in 0.00 W/m2
02:34 48.8 °F 37.6 °F 30.05 in Calm     65% 0 in 0.00 W/m2
02:39 48.8 °F 37.6 °F 30.05 in Calm     65% 0 in 0.00 W/m2
02:44 48.6 °F 37.4 °F 30.05 in Calm     65% 0 in 0.00 W/m2
02:49 48.5 °F 37.3 °F 30.06 in Calm     65% 0 in 0.00 W/m2
02:54 48.5 °F 37.7 °F 30.06 in Calm     66% 0 in 0.00 W/m2
02:59 48.5 °F 37.3 °F 30.06 in Calm     65% 0 in 0.00 W/m2
03:04 48.2 °F 37 °F 30.06 in Calm     65% 0 in 0.00 W/m2
03:09 48 °F 36.8 °F 30.06 in Calm     65% 0 in 0.00 W/m2
03:14 48 °F 36.8 °F 30.06 in Calm     65% 0 in 0.00 W/m2
03:19 48 °F 36.8 °F 30.06 in Calm     65% 0 in 0.00 W/m2
03:24 47.9 °F 36.7 °F 30.06 in Calm     65% 0 in 0.00 W/m2
03:29 47.7 °F 37.3 °F 30.06 in Calm     67% 0 in 0.00 W/m2
03:34 47.7 °F 37.3 °F 30.06 in Calm     67% 0 in 0.00 W/m2
03:39 47.6 °F 36.8 °F 30.06 in Calm     66% 0 in 0.00 W/m2
03:44 47.4 °F 36.2 °F 30.06 in Calm     65% 0 in 0.00 W/m2
03:49 47.4 °F 35.8 °F 30.06 in Calm     64% 0 in 0.00 W/m2
03:54 47.3 °F 35.7 °F 30.06 in Calm     64% 0 in 0.00 W/m2
03:59 47.1 °F 35.5 °F 30.07 in Calm     64% 0 in 0.00 W/m2
04:04 47.1 °F 35.9 °F 30.07 in Calm     65% 0 in 0.00 W/m2
04:09 47.1 °F 36.3 °F 30.07 in Calm     66% 0 in 0.00 W/m2
04:14 47 °F 35.8 °F 30.07 in Calm     65% 0 in 0.00 W/m2
04:19 47 °F 35.8 °F 30.07 in Calm     65% 0 in 0.00 W/m2
04:24 47 °F 35.8 °F 30.07 in Calm     65% 0 in 0.00 W/m2
04:29 46.8 °F 35.6 °F 30.07 in Calm     65% 0 in 0.00 W/m2
04:34 47 °F 36.2 °F 30.07 in Calm     66% 0 in 0.00 W/m2
04:39 46.8 °F 36 °F 30.07 in Calm     66% 0 in 0.00 W/m2
04:44 47 °F 36.6 °F 30.07 in Calm     67% 0 in 0.00 W/m2
04:49 47 °F 37 °F 30.07 in Calm     68% 0 in 0.00 W/m2
04:54 47 °F 37 °F 30.07 in Calm     68% 0 in 0.00 W/m2
04:59 47.1 °F 37.4 °F 30.07 in Calm     69% 0 in 0.00 W/m2
05:04 47.1 °F 37.8 °F 30.07 in Calm     70% 0 in 0.00 W/m2
05:09 47.1 °F 37.8 °F 30.07 in Calm     70% 0 in 0.00 W/m2
05:14 47.3 °F 38.4 °F 30.07 in Calm     71% 0 in 0.00 W/m2
05:19 47.4 °F 39.2 °F 30.07 in Calm     73% 0 in 0.00 W/m2
05:24 47.6 °F 39.7 °F 30.07 in Calm     74% 0 in 0.00 W/m2
05:29 47.7 °F 40.2 °F 30.07 in Calm     75% 0 in 0.00 W/m2
05:34 47.9 °F 40.7 °F 30.07 in Calm     76% 0 in 0.00 W/m2
05:39 48 °F 40.8 °F 30.07 in Calm     76% 0 in 0.00 W/m2
05:44 48.3 °F 41.8 °F 30.07 in Calm     78% 0 in 0.00 W/m2
05:49 48.5 °F 42 °F 30.08 in Calm     78% 0 in 0.00 W/m2
05:54 48.8 °F 42.6 °F 30.08 in Calm     79% 0 in 0.00 W/m2
05:59 48.8 °F 42.6 °F 30.08 in Calm     79% 0 in 0.00 W/m2
06:04 48.9 °F 42.7 °F 30.09 in Calm     79% 0 in 0.00 W/m2
06:09 49.1 °F 42.5 °F 30.09 in Calm     78% 0 in 0.00 W/m2
06:14 49.1 °F 42.5 °F 30.09 in Calm     78% 0 in 0.00 W/m2
06:19 49.2 °F 42.6 °F 30.09 in Calm     78% 0 in 0.00 W/m2
06:24 49.4 °F 42.5 °F 30.09 in Calm     77% 0 in 0.00 W/m2
06:29 49.4 °F 42.1 °F 30.09 in Calm     76% 0 in 0.00 W/m2
06:34 49.5 °F 42.2 °F 30.09 in Calm     76% 0 in 0.00 W/m2
06:39 49.6 °F 42.3 °F 30.09 in Calm     76% 0 in 0.00 W/m2
06:44 49.8 °F 42.5 °F 30.09 in Calm     76% 0 in 0.00 W/m2
06:49 49.9 °F 42.6 °F 30.09 in Calm     76% 0 in 0.00 W/m2
06:54 50.2 °F 43.3 °F 30.09 in Calm     77% 0 in 0.00 W/m2
06:59 50.4 °F 43.8 °F 30.09 in Calm     78% 0 in 0.00 W/m2
07:04 50.5 °F 43.9 °F 30.10 in Calm     78% 0 in 0.00 W/m2
07:09 50.5 °F 43.9 °F 30.10 in Calm     78% 0 in 0.00 W/m2
07:14 50.7 °F 44.4 °F 30.10 in Calm     79% 0 in 0.00 W/m2
07:19 50.8 °F 44.5 °F 30.10 in Calm     79% 0 in 0.00 W/m2
07:24 51 °F 44.7 °F 30.10 in Calm     79% 0 in 0.00 W/m2
07:29 51.1 °F 45.1 °F 30.10 in Calm     80% 0 in 0.00 W/m2
07:34 51.4 °F 46.1 °F 30.10 in Calm     82% 0 in 0.00 W/m2
07:39 51.7 °F 47 °F 30.10 in Calm     84% 0 in 5.00 W/m2
07:44 52 °F 47.6 °F 30.11 in Calm     85% 0 in 9.00 W/m2
07:49 52.3 °F 48.2 °F 30.11 in Calm     86% 0 in 11.00 W/m2
07:54 52.6 °F 48.8 °F 30.10 in Calm     87% 0 in 12.00 W/m2
07:59 52.8 °F 49 °F 30.11 in Calm     87% 0 in 19.00 W/m2
08:04 52.9 °F 49.1 °F 30.11 in Calm     87% 0 in 21.00 W/m2
08:09 53.1 °F 49.3 °F 30.11 in Calm     87% 0 in 21.00 W/m2
08:14 53.1 °F 49.6 °F 30.11 in Calm     88% 0 in 25.00 W/m2
08:19 53.2 °F 49.7 °F 30.11 in Calm     88% 0 in 30.00 W/m2
08:24 53.3 °F 49.8 °F 30.11 in Calm     88% 0 in 39.00 W/m2
08:29 53.5 °F 50 °F 30.11 in Calm     88% 0 in 49.00 W/m2
08:34 53.5 °F 50.3 °F 30.12 in Calm     89% 0 in 67.00 W/m2
08:39 53.5 °F 50.3 °F 30.12 in Calm     89% 0 in 90.00 W/m2
08:44 53.5 °F 50.3 °F 30.12 in Calm     89% 0 in 97.00 W/m2
08:49 53.6 °F 50.4 °F 30.12 in Calm   1 mph 89% 0 in 104.00 W/m2
08:54 53.8 °F 50.6 °F 30.12 in SW 0.8 mph 1 mph 89% 0 in 111.00 W/m2
08:59 53.9 °F 50.7 °F 30.12 in Calm   2.3 mph 89% 0 in 127.00 W/m2
09:04 53.9 °F 50.7 °F 30.12 in Calm     89% 0 in 169.00 W/m2
09:09 54.1 °F 50.9 °F 30.12 in Calm     89% 0 in 179.00 W/m2
09:14 54.2 °F 51 °F 30.12 in Calm     89% 0 in 151.00 W/m2
09:19 54.2 °F 50.7 °F 30.12 in Calm     88% 0 in 341.00 W/m2
09:24 54.4 °F 50.9 °F 30.12 in Calm     88% 0 in 352.00 W/m2
09:29 54.5 °F 51 °F 30.12 in Calm     88% 0 in 345.00 W/m2
09:34 54.7 °F 51.5 °F 30.11 in Calm     89% 0 in 366.00 W/m2
09:39 54.8 °F 51.3 °F 30.11 in Calm     88% 0 in 375.00 W/m2
09:44 54.8 °F 51.3 °F 30.11 in WNW 0.1 mph 1.2 mph 88% 0 in 392.00 W/m2
09:49 55 °F 51.2 °F 30.11 in North 0.9 mph 2.3 mph 87% 0 in 405.00 W/m2
09:54 55 °F 50.9 °F 30.11 in North 1.1 mph 2.3 mph 86% 0 in 419.00 W/m2
09:59 55.1 °F 51 °F 30.11 in Calm     86% 0 in 424.00 W/m2
10:04 55.3 °F 51.2 °F 30.11 in NNW 0.4 mph 3 mph 86% 0 in 442.00 W/m2
10:09 55.4 °F 51 °F 30.11 in Calm   1.2 mph 85% 0 in 442.00 W/m2
10:14 55.6 °F 51.2 °F 30.11 in Calm   1.2 mph 85% 0 in 461.00 W/m2
10:19 55.7 °F 50.9 °F 30.11 in Calm     84% 0 in 470.00 W/m2
10:24 56 °F 51.2 °F 30.11 in Calm     84% 0 in 480.00 W/m2
10:29 56.3 °F 51.2 °F 30.11 in NE 1.7 mph 2.3 mph 83% 0 in 496.00 W/m2
10:34 56.5 °F 51.4 °F 30.11 in ENE 0.2 mph 2.3 mph 83% 0 in 507.00 W/m2
10:39 56.9 °F 51.5 °F 30.11 in East 0.1 mph 1.2 mph 82% 0 in 516.00 W/m2
10:44 57.3 °F 51.5 °F 30.11 in Calm     81% 0 in 521.00 W/m2
10:49 57.5 °F 51.4 °F 30.11 in Calm     80% 0 in 533.00 W/m2
10:54 57.8 °F 51.7 °F 30.11 in Calm     80% 0 in 544.00 W/m2
10:59 58 °F 50.1 °F 30.11 in NNW 1.9 mph 3.5 mph 75% 0 in 551.00 W/m2
11:04 58.3 °F 50 °F 30.11 in Calm   3.5 mph 74% 0 in 561.00 W/m2
11:09 58.4 °F 49.8 °F 30.10 in Calm     73% 0 in 570.00 W/m2
11:14 58.7 °F 50.1 °F 30.10 in North 1.4 mph 2.3 mph 73% 0 in 575.00 W/m2
11:19 59 °F 50 °F 30.10 in North 1.1 mph 2.3 mph 72% 0 in 584.00 W/m2
11:24 59.5 °F 49.7 °F 30.10 in NNW 0.7 mph 3.5 mph 70% 0 in 591.00 W/m2
11:29 59.9 °F 49.7 °F 30.10 in Calm   3.5 mph 69% 0 in 598.00 W/m2
11:34 60.1 °F 49.5 °F 30.10 in NNW 2.6 mph 4.6 mph 68% 0 in 605.00 W/m2
11:39 60.4 °F 49.4 °F 30.10 in NNE 1 mph 3.5 mph 67% 0 in 611.00 W/m2
11:44 60.9 °F 49.9 °F 30.10 in NW 0.4 mph 2.3 mph 67% 0 in 616.00 W/m2
11:49 61.2 °F 49.7 °F 30.10 in NNW 0.2 mph   66% 0 in 619.00 W/m2
11:54 61.5 °F 50 °F 30.10 in NNE 0.2 mph 3.5 mph 66% 0 in 626.00 W/m2
11:59 61.8 °F 50.3 °F 30.10 in North 1.4 mph 3 mph 66% 0 in 626.00 W/m2
12:04 62.3 °F 50.4 °F 30.09 in North 0.2 mph 1 mph 65% 0 in 633.00 W/m2
12:09 62.6 °F 49.8 °F 30.09 in NNE 1 mph 2.3 mph 63% 0 in 635.00 W/m2
12:14 63.1 °F 50.3 °F 30.09 in NE 2.3 mph 4.6 mph 63% 0 in 637.00 W/m2
12:19 63.4 °F 50.6 °F 30.09 in North 0.7 mph 2 mph 63% 0 in 640.00 W/m2
12:24 63.9 °F 50.2 °F 30.09 in North 0.9 mph 2.3 mph 61% 0 in 639.00 W/m2
12:29 64.2 °F 50 °F 30.09 in East 0.2 mph 1.2 mph 60% 0 in 640.00 W/m2
12:34 64.5 °F 50.3 °F 30.09 in NNW 1.4 mph 3 mph 60% 0 in 644.00 W/m2
12:39 64.8 °F 48.7 °F 30.09 in NNW 2.5 mph 3.5 mph 56% 0 in 644.00 W/m2
12:44 65.3 °F 49.2 °F 30.08 in NNE 0.4 mph 1 mph 56% 0 in 648.00 W/m2
12:49 65.6 °F 48.5 °F 30.08 in NE 1.4 mph 3.5 mph 54% 0 in 628.00 W/m2
12:54 66.1 °F 49 °F 30.08 in ENE 0.7 mph 1.2 mph 54% 0 in 646.00 W/m2
12:58 66.3 °F 50.1 °F 30.07 in ENE 0.2 mph 1.2 mph 56% 0 in 646.00 W/m2
12:58 66.3 °F 50.1 °F 30.07 in ENE 0.2 mph 1.2 mph 56% 0 in 646.00 W/m2
12:58 66.3 °F 50.1 °F 30.07 in ENE 0.2 mph 1.2 mph 56% 0 in 646.00 W/m2
12:59 66.3 °F 50.1 °F 30.07 in ENE 0.2 mph 1.2 mph 56% 0 in 646.00 W/m2
13:03 66.6 °F 49.4 °F 30.07 in NNW 1 mph 2.3 mph 54% 0 in 644.00 W/m2
13:09 66.9 °F 48.7 °F 30.07 in NNE 1.6 mph 3.5 mph 52% 0 in 644.00 W/m2
13:14 67.3 °F 49.1 °F 30.07 in Calm   1.2 mph 52% 0 in 646.00 W/m2
13:18 67.4 °F 49.2 °F 30.06 in East 1.8 mph 3.5 mph 52% 0 in 639.00 W/m2
13:24 67.9 °F 46.9 °F 30.06 in WNW 0.4 mph 2 mph 47% 0 in 637.00 W/m2
13:29 68.3 °F 44.9 °F 30.06 in North 2.2 mph 4.6 mph 43% 0 in 635.00 W/m2
13:34 68.8 °F 44.8 °F 30.05 in NNE 0.2 mph 2 mph 42% 0 in 632.00 W/m2
13:39 69.1 °F 45.7 °F 30.05 in East 1.9 mph 3.5 mph 43% 0 in 628.00 W/m2
13:48 69.6 °F 46.7 °F 30.05 in WNW 0.1 mph 2.3 mph 44% 0 in 619.00 W/m2
13:57 70.1 °F 48.9 °F 30.04 in East 0.4 mph 1.2 mph 47% 0 in 611.00 W/m2
14:06 70.6 °F 45.1 °F 30.04 in North 2.4 mph 4.6 mph 40% 0 in 600.00 W/m2
14:16 71.1 °F 46.2 °F 30.04 in NNW 1.4 mph 5 mph 41% 0 in 589.00 W/m2
14:24 71.6 °F 46 °F 30.03 in North 2.1 mph 4.6 mph 40% 0 in 575.00 W/m2
14:34 72.1 °F 44.4 °F 30.03 in NE 2.7 mph 4.6 mph 37% 0 in 561.00 W/m2
14:42 72.5 °F 45.4 °F 30.02 in North 2.1 mph 3.5 mph 38% 0 in 545.00 W/m2
14:49 72.8 °F 44.3 °F 30.02 in North 2.7 mph 6.9 mph 36% 0 in 537.00 W/m2
14:54 73 °F 43.7 °F 30.02 in NNE 3 mph 3.5 mph 35% 0 in 528.00 W/m2
14:59 73.3 °F 45.4 °F 30.02 in NNE 1.7 mph 4.6 mph 37% 0 in 516.00 W/m2
15:04 73.7 °F 45.1 °F 30.02 in North 3 mph 4.6 mph 36% 0 in 505.00 W/m2
15:09 73.9 °F 43.8 °F 30.02 in North 3.4 mph 4.6 mph 34% 0 in 494.00 W/m2
15:14 74 °F 45.3 °F 30.02 in NNE 1.6 mph 3.5 mph 36% 0 in 484.00 W/m2
15:19 74.2 °F 45.5 °F 30.02 in North 1.2 mph 3.5 mph 36% 0 in 473.00 W/m2
15:24 74.4 °F 45 °F 30.02 in North 1.7 mph 3.5 mph 35% 0 in 461.00 W/m2
15:29 74.4 °F 44.2 °F 30.02 in NNE 3.7 mph 5.8 mph 34% 0 in 452.00 W/m2
15:34 74.4 °F 44.2 °F 30.02 in NNW 3.1 mph 5.8 mph 34% 0 in 436.00 W/m2
15:39 74.6 °F 45.1 °F 30.02 in WNW 4.2 mph 6.9 mph 35% 0 in 424.00 W/m2
15:44 74.6 °F 45.9 °F 30.02 in North 0.7 mph 4.6 mph 36% 0 in 412.00 W/m2
15:49 74.6 °F 48 °F 30.02 in NNE 0.8 mph 3.5 mph 39% 0 in 399.00 W/m2
15:54 74.6 °F 48 °F 30.02 in NNE 1.7 mph 2.3 mph 39% 0 in 387.00 W/m2
15:59 74.6 °F 49.3 °F 30.02 in North 3 mph 4.6 mph 41% 0 in 373.00 W/m2
16:04 74.6 °F 49.3 °F 30.02 in NE 1.9 mph 6 mph 41% 0 in 364.00 W/m2
16:09 74.6 °F 50.6 °F 30.02 in North 1.6 mph 3.5 mph 43% 0 in 350.00 W/m2
16:14 74.6 °F 50 °F 30.02 in North 2.1 mph 5.8 mph 42% 0 in 334.00 W/m2
16:19 74.4 °F 48.5 °F 30.02 in North 2.8 mph 4.6 mph 40% 0 in 322.00 W/m2
16:24 74.4 °F 47.1 °F 30.02 in NNW 3.1 mph 5.8 mph 38% 0 in 310.00 W/m2
16:29 74.2 °F 46.2 °F 30.02 in NNW 1.2 mph 5.8 mph 37% 0 in 297.00 W/m2
16:34 74.2 °F 45.5 °F 30.02 in North 2.6 mph 5.8 mph 36% 0 in 283.00 W/m2
16:39 74 °F 46.1 °F 30.02 in NW 0.4 mph 2 mph 37% 0 in 269.00 W/m2
16:44 74 °F 46.1 °F 30.02 in North 1.8 mph 4.6 mph 37% 0 in 257.00 W/m2
16:49 73.9 °F 47.4 °F 30.02 in NNE 2.1 mph 3.5 mph 39% 0 in 245.00 W/m2
16:54 73.7 °F 47.2 °F 30.02 in NNE 4.4 mph 6 mph 39% 0 in 216.00 W/m2
16:59 73.5 °F 48.4 °F 30.01 in NNE 2 mph 3.5 mph 41% 0 in 199.00 W/m2
17:04 73.3 °F 48.8 °F 30.01 in NNW 0.7 mph 2.3 mph 42% 0 in 181.00 W/m2
17:09 73.2 °F 48.7 °F 30.01 in North 0.8 mph 3 mph 42% 0 in 56.00 W/m2
17:14 73 °F 49.2 °F 30.02 in North 2.9 mph 5.8 mph 43% 0 in 48.00 W/m2
17:19 72.8 °F 49.6 °F 30.02 in North 1.3 mph 3.5 mph 44% 0 in 157.00 W/m2
17:24 72.7 °F 49.5 °F 30.01 in Calm     44% 0 in 83.00 W/m2
17:29 72.5 °F 49.9 °F 30.02 in North 0.7 mph 2.3 mph 45% 0 in 32.00 W/m2
17:34 72.3 °F 49.8 °F 30.02 in NNW 0.3 mph 3 mph 45% 0 in 30.00 W/m2
17:39 72.1 °F 49 °F 30.02 in Calm     44% 0 in 30.00 W/m2
17:44 71.8 °F 48.7 °F 30.02 in Calm   2.3 mph 44% 0 in 30.00 W/m2
17:49 71.6 °F 49.7 °F 30.02 in NE 1.3 mph 4.6 mph 46% 0 in 26.00 W/m2
17:54 71.5 °F 50.8 °F 30.02 in Calm   1.2 mph 48% 0 in 21.00 W/m2
17:59 71.1 °F 51 °F 30.02 in Calm     49% 0 in 18.00 W/m2
18:04 70.8 °F 51.2 °F 30.02 in Calm     50% 0 in 16.00 W/m2
18:09 70.4 °F 51.4 °F 30.02 in Calm   1.2 mph 51% 0 in 12.00 W/m2
18:14 70.1 °F 52.2 °F 30.02 in Calm     53% 0 in 9.00 W/m2
18:19 69.8 °F 52.4 °F 30.02 in Calm     54% 0 in 7.00 W/m2
18:24 69.3 °F 52.9 °F 30.02 in Calm     56% 0 in 5.00 W/m2
18:29 68.8 °F 52.9 °F 30.02 in Calm     57% 0 in 0.00 W/m2
18:34 68.4 °F 53 °F 30.03 in Calm     58% 0 in 0.00 W/m2
18:39 68.1 °F 53.2 °F 30.03 in Calm     59% 0 in 0.00 W/m2
18:44 67.8 °F 53.4 °F 30.03 in Calm     60% 0 in 0.00 W/m2
18:49 67.4 °F 53.5 °F 30.04 in Calm     61% 0 in 0.00 W/m2
18:54 67.1 °F 53.6 °F 30.04 in Calm     62% 0 in 0.00 W/m2
18:59 66.8 °F 53.8 °F 30.04 in Calm     63% 0 in 0.00 W/m2
19:04 66.6 °F 53.2 °F 30.04 in Calm     62% 0 in 0.00 W/m2
19:09 66.3 °F 53.3 °F 30.04 in Calm     63% 0 in 0.00 W/m2
19:14 66 °F 53.5 °F 30.04 in NNW 0.3 mph 2 mph 64% 0 in 0.00 W/m2
19:19 65.6 °F 52.7 °F 30.05 in NNW 0.3 mph 1 mph 63% 0 in 0.00 W/m2
Juneau County Weather
Compliments of Weather Underground - 2.75 mb